Time;durP1;ratioP1;P1;durP2;ratioP2;P2;SDS_P1;SDS_P2;PMS_P1;PMS_P2;Temp;Humidity;BMP_temperature;BMP_pressure;BME280_temperature;BME280_humidity;BME280_pressure;Samples;Min_cycle;Max_cycle;Signal;HPM_P1;HPM_P2
2022/05/13 00:01:45;;;;;;;1.20;1.20;;;;;;;;;;4906582;29;20123;-74
2022/05/13 00:04:11;;;;;;;2.13;1.10;;;;;;;;;;4912668;29;20044;-74
2022/05/13 00:06:37;;;;;;;1.20;1.20;;;;;;;;;;4911636;29;20044;-75
2022/05/13 00:09:03;;;;;;;1.77;1.10;;;;;;;;;;4910198;29;20068;-74
2022/05/13 00:11:31;;;;;;;0.90;0.90;;;;;;;;;;4911505;29;20426;-74
2022/05/13 00:13:57;;;;;;;1.45;1.15;;;;;;;;;;4912766;29;20130;-73
2022/05/13 00:16:23;;;;;;;1.02;1.02;;;;;;;;;;4911434;29;20059;-73
2022/05/13 00:18:49;;;;;;;1.77;1.70;;;;;;;;;;4912287;29;20098;-74
2022/05/13 00:21:15;;;;;;;1.15;1.13;;;;;;;;;;4910404;29;20060;-72
2022/05/13 00:23:40;;;;;;;2.58;1.27;;;;;;;;;;4912472;29;20050;-72
2022/05/13 00:26:06;;;;;;;1.85;1.05;;;;;;;;;;4910447;29;20123;-70
2022/05/13 00:28:32;;;;;;;0.90;0.90;;;;;;;;;;4905448;29;20139;-70
2022/05/13 00:30:59;;;;;;;1.48;1.40;;;;;;;;;;4900471;29;20100;-70
2022/05/13 00:33:25;;;;;;;1.42;1.42;;;;;;;;;;4895479;29;20108;-72
2022/05/13 00:35:51;;;;;;;1.33;1.33;;;;;;;;;;4893673;29;20044;-72
2022/05/13 00:38:17;;;;;;;1.35;1.33;;;;;;;;;;4893128;29;20052;-71
2022/05/13 00:40:43;;;;;;;0.98;0.98;;;;;;;;;;4893625;29;20589;-72
2022/05/13 00:43:10;;;;;;;1.30;1.30;;;;;;;;;;4893190;29;20050;-72
2022/05/13 00:45:36;;;;;;;1.60;1.60;;;;;;;;;;4901961;29;20050;-71
2022/05/13 00:48:02;;;;;;;1.42;1.42;;;;;;;;;;4912665;29;20427;-75
2022/05/13 00:50:30;;;;;;;1.80;1.70;;;;;;;;;;4914765;29;20575;-76
2022/05/13 00:52:56;;;;;;;1.23;1.08;;;;;;;;;;4915012;29;20047;-75
2022/05/13 00:55:23;;;;;;;1.30;1.20;;;;;;;;;;4916058;29;20052;-75
2022/05/13 00:57:49;;;;;;;1.00;1.00;;;;;;;;;;4916288;29;20044;-74
2022/05/13 01:00:15;;;;;;;1.27;1.20;;;;;;;;;;4915811;29;20048;-76
2022/05/13 01:02:43;;;;;;;1.80;1.50;;;;;;;;;;4922764;29;20052;-74
2022/05/13 01:05:09;;;;;;;1.40;1.40;;;;;;;;;;4926736;29;20091;-74
2022/05/13 01:07:35;;;;;;;1.20;1.20;;;;;;;;;;4925064;29;20058;-75
2022/05/13 01:10:02;;;;;;;1.77;1.67;;;;;;;;;;4917597;29;20079;-75
2022/05/13 01:12:31;;;;;;;1.33;1.20;;;;;;;;;;4914599;29;20052;-74
2022/05/13 01:15:00;;;;;;;1.15;1.15;;;;;;;;;;4914555;29;20048;-74
2022/05/13 01:20:33;;;;;;;1.30;1.30;;;;;;;;;;4838422;29;20045;-74
2022/05/13 01:23:00;;;;;;;1.27;1.17;;;;;;;;;;4837965;29;20069;-75
2022/05/13 01:25:27;;;;;;;1.40;1.30;;;;;;;;;;4875739;29;20088;-75
2022/05/13 01:27:53;;;;;;;1.27;1.17;;;;;;;;;;4915956;29;20113;-75
2022/05/13 01:30:20;;;;;;;1.23;1.23;;;;;;;;;;4914888;29;20503;-75
2022/05/13 01:32:47;;;;;;;1.02;1.02;;;;;;;;;;4915730;29;20707;-75
2022/05/13 01:35:13;;;;;;;2.35;1.15;;;;;;;;;;4914760;29;20056;-73
2022/05/13 01:37:39;;;;;;;0.80;0.80;;;;;;;;;;4908453;29;20662;-74
2022/05/13 01:40:05;;;;;;;1.13;1.00;;;;;;;;;;4895966;29;20048;-75
2022/05/13 01:42:31;;;;;;;1.25;1.15;;;;;;;;;;4895845;29;20127;-75
2022/05/13 01:44:57;;;;;;;4.68;1.45;;;;;;;;;;4896341;29;20039;-75
2022/05/13 01:47:24;;;;;;;1.85;0.90;;;;;;;;;;4895762;29;20053;-74
2022/05/13 01:49:50;;;;;;;1.45;1.45;;;;;;;;;;4896058;29;20043;-73
2022/05/13 01:52:16;;;;;;;1.10;1.10;;;;;;;;;;4895520;29;20048;-73
2022/05/13 01:54:42;;;;;;;1.20;1.20;;;;;;;;;;4895940;29;20044;-75
2022/05/13 01:57:07;;;;;;;1.30;1.30;;;;;;;;;;4901778;29;20059;-74
2022/05/13 01:59:33;;;;;;;1.50;1.40;;;;;;;;;;4912837;29;20052;-74
2022/05/13 02:01:59;;;;;;;3.53;1.23;;;;;;;;;;4914189;29;20071;-74
2022/05/13 02:04:25;;;;;;;1.50;1.40;;;;;;;;;;4914277;29;20127;-75
2022/05/13 02:06:51;;;;;;;1.35;1.25;;;;;;;;;;4914591;29;20096;-74
2022/05/13 02:09:17;;;;;;;1.73;1.20;;;;;;;;;;4913927;29;20059;-74
2022/05/13 02:11:45;;;;;;;0.82;0.82;;;;;;;;;;4914512;29;20059;-74
2022/05/13 02:14:17;;;;;;;1.27;1.10;;;;;;;;;;4912553;29;20080;-74
2022/05/13 02:16:43;;;;;;;1.67;1.58;;;;;;;;;;4914135;29;20541;-74
2022/05/13 02:19:08;;;;;;;0.70;0.70;;;;;;;;;;4913948;29;20048;-74
2022/05/13 02:21:35;;;;;;;1.17;1.17;;;;;;;;;;4914241;29;20059;-74
2022/05/13 02:24:00;;;;;;;0.95;0.93;;;;;;;;;;4914099;29;20531;-74
2022/05/13 02:26:26;;;;;;;1.55;1.23;;;;;;;;;;4913960;29;20052;-74
2022/05/13 02:28:52;;;;;;;1.00;1.00;;;;;;;;;;4914021;29;20127;-74
2022/05/13 02:31:18;;;;;;;2.42;1.23;;;;;;;;;;4912946;29;20180;-73
2022/05/13 02:33:44;;;;;;;1.42;1.25;;;;;;;;;;4895021;29;20059;-74
2022/05/13 02:36:11;;;;;;;1.30;1.30;;;;;;;;;;4894790;29;20144;-74
2022/05/13 02:38:36;;;;;;;1.35;1.20;;;;;;;;;;4909533;29;20504;-74
2022/05/13 02:41:12;;;;;;;1.30;1.08;;;;;;;;;;4894974;29;20040;-73
2022/05/13 02:43:41;;;;;;;1.55;1.45;;;;;;;;;;4894144;29;20056;-72
2022/05/13 02:46:07;;;;;;;1.30;1.30;;;;;;;;;;4894726;29;20135;-73
2022/05/13 02:48:33;;;;;;;1.33;1.23;;;;;;;;;;4901353;29;20459;-74
2022/05/13 02:50:59;;;;;;;1.27;1.17;;;;;;;;;;4894966;29;20056;-74
2022/05/13 02:53:24;;;;;;;1.48;1.20;;;;;;;;;;4894440;29;20692;-74
2022/05/13 02:55:51;;;;;;;1.77;1.33;;;;;;;;;;4894839;29;20032;-75
2022/05/13 02:58:17;;;;;;;1.30;1.23;;;;;;;;;;4894457;29;20075;-74
2022/05/13 03:00:44;;;;;;;1.10;1.10;;;;;;;;;;4899322;29;20044;-73
2022/05/13 03:03:10;;;;;;;1.50;1.40;;;;;;;;;;4908493;29;20119;-74
2022/05/13 03:05:36;;;;;;;1.33;1.23;;;;;;;;;;4904484;29;20040;-73
2022/05/13 03:08:02;;;;;;;3.03;1.40;;;;;;;;;;4911910;29;20052;-74
2022/05/13 03:10:29;;;;;;;1.40;1.40;;;;;;;;;;4900088;29;20044;-74
2022/05/13 03:12:56;;;;;;;3.00;1.48;;;;;;;;;;4911766;29;20618;-73
2022/05/13 03:15:22;;;;;;;1.00;1.00;;;;;;;;;;4912881;29;20044;-73
2022/05/13 03:17:48;;;;;;;2.45;1.35;;;;;;;;;;4911756;29;20058;-74
2022/05/13 03:20:15;;;;;;;1.13;1.13;;;;;;;;;;4912674;29;20036;-74
2022/05/13 03:22:42;;;;;;;1.75;1.25;;;;;;;;;;4911925;29;20552;-74
2022/05/13 03:25:08;;;;;;;1.88;1.30;;;;;;;;;;4912849;29;20040;-73
2022/05/13 03:27:34;;;;;;;1.33;1.23;;;;;;;;;;4911370;29;20056;-74
2022/05/13 03:30:00;;;;;;;1.52;1.25;;;;;;;;;;4912804;29;20119;-70
2022/05/13 03:32:26;;;;;;;1.35;1.10;;;;;;;;;;4910695;29;20136;-72
2022/05/13 03:34:51;;;;;;;1.35;1.23;;;;;;;;;;4906219;29;20127;-72
2022/05/13 03:37:17;;;;;;;1.60;1.50;;;;;;;;;;4900873;29;20044;-71
2022/05/13 03:39:43;;;;;;;1.67;1.38;;;;;;;;;;4895344;29;20049;-71
2022/05/13 03:42:09;;;;;;;2.90;1.50;;;;;;;;;;4893279;29;20047;-72
2022/05/13 03:44:36;;;;;;;1.83;1.70;;;;;;;;;;4893325;29;20376;-71
2022/05/13 03:47:03;;;;;;;2.97;1.00;;;;;;;;;;4895419;29;20110;-73
2022/05/13 03:49:28;;;;;;;1.60;1.50;;;;;;;;;;4910093;29;20587;-72
2022/05/13 03:51:54;;;;;;;1.30;1.13;;;;;;;;;;4910802;29;20134;-72
2022/05/13 03:54:20;;;;;;;2.55;1.40;;;;;;;;;;4911498;29;20127;-70
2022/05/13 03:56:46;;;;;;;1.60;1.50;;;;;;;;;;4911946;29;20039;-71
2022/05/13 03:59:12;;;;;;;1.65;1.38;;;;;;;;;;4911395;29;20076;-72
2022/05/13 04:01:38;;;;;;;2.63;1.88;;;;;;;;;;4911055;29;20103;-71
2022/05/13 04:04:04;;;;;;;2.42;1.70;;;;;;;;;;4911531;29;20052;-71
2022/05/13 04:09:14;;;;;;;1.25;1.25;;;;;;;;;;4910937;29;20441;-71
2022/05/13 04:11:40;;;;;;;2.08;1.80;;;;;;;;;;4911859;29;20040;-71
2022/05/13 04:16:52;;;;;;;1.40;1.17;;;;;;;;;;4910296;29;20068;-70
2022/05/13 04:19:18;;;;;;;2.65;1.80;;;;;;;;;;4910617;29;20774;-70
2022/05/13 04:21:44;;;;;;;2.03;1.60;;;;;;;;;;4911312;29;20523;-71
2022/05/13 04:24:11;;;;;;;3.75;1.85;;;;;;;;;;4915031;29;20430;-71
2022/05/13 04:26:37;;;;;;;1.30;1.20;;;;;;;;;;4914696;29;20571;-70
2022/05/13 04:29:03;;;;;;;3.30;1.50;;;;;;;;;;4914669;29;20062;-69
2022/05/13 04:31:30;;;;;;;4.38;1.60;;;;;;;;;;4915090;29;20515;-69
2022/05/13 04:33:55;;;;;;;1.20;1.13;;;;;;;;;;4915218;29;20044;-68
2022/05/13 04:36:22;;;;;;;1.40;1.30;;;;;;;;;;4914894;29;20040;-69
2022/05/13 04:38:47;;;;;;;1.80;1.70;;;;;;;;;;4915781;29;20039;-69
2022/05/13 04:43:58;;;;;;;3.10;1.67;;;;;;;;;;4915222;29;20131;-70
2022/05/13 04:46:25;;;;;;;5.03;1.60;;;;;;;;;;4914814;29;20131;-70
2022/05/13 04:48:51;;;;;;;2.17;1.85;;;;;;;;;;4915378;29;20055;-69
2022/05/13 04:51:17;;;;;;;2.00;1.90;;;;;;;;;;4915234;29;20044;-70
2022/05/13 04:53:43;;;;;;;1.55;1.45;;;;;;;;;;4914928;29;20055;-70
2022/05/13 04:56:09;;;;;;;2.13;1.55;;;;;;;;;;4915271;29;20036;-68
2022/05/13 04:58:35;;;;;;;1.23;1.17;;;;;;;;;;4915341;29;20051;-69
2022/05/13 05:01:01;;;;;;;1.70;1.60;;;;;;;;;;4914836;29;20036;-70
2022/05/13 05:03:28;;;;;;;1.15;1.15;;;;;;;;;;4914351;29;20079;-69
2022/05/13 05:05:55;;;;;;;2.28;1.40;;;;;;;;;;4914820;29;20044;-71
2022/05/13 05:08:20;;;;;;;5.00;1.65;;;;;;;;;;4914629;29;20064;-69
2022/05/13 05:10:47;;;;;;;4.45;1.40;;;;;;;;;;4915365;29;20044;-71
2022/05/13 05:13:20;;;;;;;2.58;1.80;;;;;;;;;;4912535;29;20048;-71
2022/05/13 05:15:46;;;;;;;1.30;1.20;;;;;;;;;;4912584;29;20048;-72
2022/05/13 05:18:12;;;;;;;1.42;1.30;;;;;;;;;;4910549;29;20040;-72
2022/05/13 05:20:38;;;;;;;2.05;1.58;;;;;;;;;;4913692;29;20054;-72
2022/05/13 05:23:05;;;;;;;2.67;1.20;;;;;;;;;;4911823;29;20048;-71
2022/05/13 05:25:31;;;;;;;2.92;1.60;;;;;;;;;;4911835;29;20044;-71
2022/05/13 05:27:57;;;;;;;1.60;1.50;;;;;;;;;;4911954;29;20056;-71
2022/05/13 05:30:23;;;;;;;1.33;1.30;;;;;;;;;;4903120;29;20037;-71
2022/05/13 05:32:49;;;;;;;1.38;1.30;;;;;;;;;;4904521;29;20431;-71
2022/05/13 05:35:15;;;;;;;1.00;1.00;;;;;;;;;;4902756;29;20595;-71
2022/05/13 05:37:41;;;;;;;1.65;1.40;;;;;;;;;;4911798;29;20047;-72
2022/05/13 05:40:09;;;;;;;1.40;1.30;;;;;;;;;;4904303;29;20041;-72
2022/05/13 05:42:35;;;;;;;2.22;1.45;;;;;;;;;;4903214;29;20044;-73
2022/05/13 05:45:01;;;;;;;2.67;1.33;;;;;;;;;;4895891;29;20055;-73
2022/05/13 05:47:29;;;;;;;1.60;1.50;;;;;;;;;;4895610;29;20147;-73
2022/05/13 05:49:55;;;;;;;2.80;1.48;;;;;;;;;;4901867;29;20043;-72
2022/05/13 05:52:21;;;;;;;4.05;1.48;;;;;;;;;;4908965;29;20051;-73
2022/05/13 05:57:31;;;;;;;4.28;1.50;;;;;;;;;;4908594;29;20178;-76
2022/05/13 05:59:57;;;;;;;3.67;1.77;;;;;;;;;;4913053;29;20040;-74
2022/05/13 06:02:23;;;;;;;4.32;1.70;;;;;;;;;;4912601;29;20088;-75
2022/05/13 06:04:49;;;;;;;2.83;1.23;;;;;;;;;;4913112;29;20427;-75
2022/05/13 06:07:16;;;;;;;2.63;1.50;;;;;;;;;;4912607;29;20052;-75
2022/05/13 06:09:42;;;;;;;1.88;1.40;;;;;;;;;;4913032;29;20517;-73
2022/05/13 06:12:09;;;;;;;2.28;1.60;;;;;;;;;;4912750;29;20047;-73
2022/05/13 06:14:35;;;;;;;5.65;1.52;;;;;;;;;;4909364;29;20048;-73
2022/05/13 06:17:01;;;;;;;4.95;1.38;;;;;;;;;;4910761;29;20096;-73
2022/05/13 06:19:27;;;;;;;1.58;1.48;;;;;;;;;;4911036;29;20039;-74
2022/05/13 06:21:53;;;;;;;3.90;1.70;;;;;;;;;;4911602;29;20043;-73
2022/05/13 06:24:19;;;;;;;1.42;1.30;;;;;;;;;;4912078;29;20036;-72
2022/05/13 06:26:46;;;;;;;1.52;1.42;;;;;;;;;;4912494;29;20036;-74
2022/05/13 06:29:12;;;;;;;2.00;1.52;;;;;;;;;;4910837;29;20052;-72
2022/05/13 06:31:38;;;;;;;3.10;1.70;;;;;;;;;;4912643;29;20032;-73
2022/05/13 06:34:03;;;;;;;2.25;1.38;;;;;;;;;;4910694;29;20206;-75
2022/05/13 06:36:31;;;;;;;1.10;1.10;;;;;;;;;;4911309;29;20040;-74
2022/05/13 06:38:57;;;;;;;2.80;1.40;;;;;;;;;;4908858;29;20043;-71
2022/05/13 06:41:24;;;;;;;2.72;1.55;;;;;;;;;;4911142;29;20055;-74
2022/05/13 06:43:50;;;;;;;2.10;1.80;;;;;;;;;;4911130;29;20044;-72
2022/05/13 06:46:16;;;;;;;2.13;1.17;;;;;;;;;;4911542;29;20056;-72
2022/05/13 06:48:42;;;;;;;1.50;1.38;;;;;;;;;;4911743;29;20083;-73
2022/05/13 06:51:08;;;;;;;2.70;1.60;;;;;;;;;;4907964;29;22089;-72
2022/05/13 06:53:33;;;;;;;1.58;1.48;;;;;;;;;;4906392;29;20066;-73
2022/05/13 06:55:59;;;;;;;1.40;1.30;;;;;;;;;;4912051;29;20048;-73
2022/05/13 06:58:27;;;;;;;1.42;1.30;;;;;;;;;;4911615;29;20118;-73
2022/05/13 07:00:53;;;;;;;2.00;1.45;;;;;;;;;;4911922;29;20126;-73
2022/05/13 07:03:18;;;;;;;1.40;1.30;;;;;;;;;;4900824;29;20511;-73
2022/05/13 07:05:45;;;;;;;1.55;1.17;;;;;;;;;;4911164;29;20048;-74
2022/05/13 07:08:10;;;;;;;2.20;1.30;;;;;;;;;;4910016;29;20552;-73
2022/05/13 07:10:39;;;;;;;4.57;1.70;;;;;;;;;;4910314;29;20551;-73
2022/05/13 07:13:05;;;;;;;14.07;1.40;;;;;;;;;;4912505;29;20048;-75
2022/05/13 07:15:31;;;;;;;2.03;1.42;;;;;;;;;;4912826;29;20044;-74
2022/05/13 07:22:47;;;;;;;4.22;1.23;;;;;;;;;;4882769;29;20232;-72
2022/05/13 07:25:13;;;;;;;1.63;1.52;;;;;;;;;;4882569;29;20048;-74
2022/05/13 07:27:39;;;;;;;1.42;1.33;;;;;;;;;;4883549;29;20051;-73
2022/05/13 07:30:05;;;;;;;1.80;1.40;;;;;;;;;;4878024;29;20060;-74
2022/05/13 07:32:32;;;;;;;2.08;1.13;;;;;;;;;;4885455;29;20037;-73
2022/05/13 07:34:59;;;;;;;2.25;1.30;;;;;;;;;;4883303;29;20064;-74
2022/05/13 07:37:24;;;;;;;1.45;1.33;;;;;;;;;;4887187;29;20527;-73
2022/05/13 07:42:35;;;;;;;2.17;1.52;;;;;;;;;;4884928;29;20283;-73
2022/05/13 07:45:01;;;;;;;6.20;1.50;;;;;;;;;;4883041;29;20116;-73
2022/05/13 07:47:29;;;;;;;1.33;1.13;;;;;;;;;;4879514;29;20048;-73
2022/05/13 07:49:55;;;;;;;2.28;1.30;;;;;;;;;;4883677;29;20053;-74
2022/05/13 07:52:20;;;;;;;2.35;1.42;;;;;;;;;;4879228;29;20185;-73
2022/05/13 07:54:47;;;;;;;2.05;1.38;;;;;;;;;;4882867;29;20044;-73
2022/05/13 07:57:12;;;;;;;4.30;1.35;;;;;;;;;;4881803;29;20052;-73
2022/05/13 08:02:24;;;;;;;3.90;1.33;;;;;;;;;;4886369;29;20096;-73
2022/05/13 08:04:49;;;;;;;1.83;1.45;;;;;;;;;;4863132;29;20486;-73
2022/05/13 08:07:15;;;;;;;2.47;1.58;;;;;;;;;;4880437;29;20040;-73
2022/05/13 08:09:41;;;;;;;2.83;1.02;;;;;;;;;;4882965;29;20044;-73
2022/05/13 08:12:07;;;;;;;4.63;1.27;;;;;;;;;;4883122;29;20041;-73
2022/05/13 08:14:33;;;;;;;4.38;1.10;;;;;;;;;;4881342;29;20424;-73
2022/05/13 08:16:59;;;;;;;0.90;0.90;;;;;;;;;;4881830;29;20037;-75
2022/05/13 08:19:25;;;;;;;1.65;1.30;;;;;;;;;;4880212;29;20149;-75
2022/05/13 08:21:51;;;;;;;2.70;1.38;;;;;;;;;;4892373;29;20055;-75
2022/05/13 08:24:17;;;;;;;0.80;0.80;;;;;;;;;;4905892;29;20522;-75
2022/05/13 08:26:43;;;;;;;4.05;3.65;;;;;;;;;;4891112;29;20059;-76
2022/05/13 08:29:09;;;;;;;1.33;1.20;;;;;;;;;;4890383;29;20045;-76
2022/05/13 08:31:34;;;;;;;1.38;1.20;;;;;;;;;;4890848;29;20473;-76
2022/05/13 08:34:00;;;;;;;1.77;1.55;;;;;;;;;;4891985;29;20530;-76
2022/05/13 08:36:26;;;;;;;2.70;1.40;;;;;;;;;;4891206;29;20119;-77
2022/05/13 08:38:52;;;;;;;1.90;1.17;;;;;;;;;;4891827;29;20116;-76
2022/05/13 08:41:28;;;;;;;0.95;0.95;;;;;;;;;;4891586;29;20044;-76
2022/05/13 08:43:56;;;;;;;0.98;0.98;;;;;;;;;;4875678;29;20046;-77
2022/05/13 08:46:29;;;;;;;1.33;1.13;;;;;;;;;;4892230;29;20044;-74
2022/05/13 08:49:14;;;;;;;1.33;0.77;;;;;;;;;;4876732;29;20610;-78
2022/05/13 08:51:40;;;;;;;0.95;0.95;;;;;;;;;;4893411;29;20045;-74
2022/05/13 08:54:14;;;;;;;1.95;1.00;;;;;;;;;;4876034;29;20538;-74
2022/05/13 08:56:40;;;;;;;7.57;1.13;;;;;;;;;;4889706;29;20047;-74
2022/05/13 08:59:13;;;;;;;6.60;1.15;;;;;;;;;;4884659;29;20060;-73
2022/05/13 09:01:40;;;;;;;1.13;1.08;;;;;;;;;;4893278;29;20048;-73
2022/05/13 09:04:07;;;;;;;1.77;0.82;;;;;;;;;;4875849;29;20292;-72
2022/05/13 09:06:37;;;;;;;1.00;0.90;;;;;;;;;;4874548;29;20045;-73
2022/05/13 09:09:03;;;;;;;3.47;1.10;;;;;;;;;;4876712;29;20101;-71
2022/05/13 09:11:33;;;;;;;2.30;1.00;;;;;;;;;;4894519;29;20051;-72
2022/05/13 09:14:03;;;;;;;1.00;0.98;;;;;;;;;;4895171;29;20048;-72
2022/05/13 09:16:41;;;;;;;3.50;1.10;;;;;;;;;;4877345;29;20048;-72
2022/05/13 09:19:07;;;;;;;1.63;0.93;;;;;;;;;;4893707;29;20048;-72
2022/05/13 09:21:34;;;;;;;1.15;1.10;;;;;;;;;;4894944;29;20045;-70
2022/05/13 09:24:00;;;;;;;1.75;1.08;;;;;;;;;;4895592;29;20052;-72
2022/05/13 09:26:26;;;;;;;1.30;1.20;;;;;;;;;;4894197;29;20535;-71
2022/05/13 09:28:58;;;;;;;5.18;1.23;;;;;;;;;;4895052;29;20057;-71
2022/05/13 09:31:24;;;;;;;2.38;1.38;;;;;;;;;;4877542;29;20519;-70
2022/05/13 09:33:50;;;;;;;1.38;1.27;;;;;;;;;;4877645;29;20542;-71
2022/05/13 09:36:23;;;;;;;0.80;0.80;;;;;;;;;;4894011;29;20092;-71
2022/05/13 09:38:50;;;;;;;1.13;1.10;;;;;;;;;;4894593;29;20044;-72
2022/05/13 09:41:34;;;;;;;1.08;0.95;;;;;;;;;;4891549;29;20053;-70
2022/05/13 09:44:04;;;;;;;3.67;0.90;;;;;;;;;;4893004;29;20045;-72
2022/05/13 09:46:56;;;;;;;2.33;1.48;;;;;;;;;;4893806;29;20072;-72
2022/05/13 09:49:29;;;;;;;0.90;0.90;;;;;;;;;;4867102;29;20116;-72
2022/05/13 09:51:59;;;;;;;2.35;1.40;;;;;;;;;;4889475;29;20068;-72
2022/05/13 09:54:28;;;;;;;1.05;0.90;;;;;;;;;;4874993;29;20089;-72
2022/05/13 09:57:09;;;;;;;0.90;0.90;;;;;;;;;;4875084;29;20056;-71
2022/05/13 09:59:38;;;;;;;2.65;1.10;;;;;;;;;;4876816;29;20119;-72
2022/05/13 10:02:15;;;;;;;1.30;1.20;;;;;;;;;;4875643;29;20049;-73
2022/05/13 10:04:41;;;;;;;3.97;1.00;;;;;;;;;;4877486;29;20056;-72
2022/05/13 10:07:10;;;;;;;0.70;0.70;;;;;;;;;;4876603;29;20049;-72
2022/05/13 10:15:26;;;;;;;1.75;1.15;;;;;;;;;;4876334;29;20072;-71
2022/05/13 10:17:57;;;;;;;0.90;0.90;;;;;;;;;;4876531;29;20095;-72
2022/05/13 10:20:22;;;;;;;;;;;;;;;;;;4859367;29;20081;-71
2022/05/13 10:22:51;;;;;;;1.08;0.82;;;;;;;;;;4865568;29;19959;-72
2022/05/13 10:25:20;;;;;;;1.40;1.00;;;;;;;;;;4889257;29;20049;-72
2022/05/13 10:28:01;;;;;;;0.88;0.88;;;;;;;;;;4893801;29;20052;-72
2022/05/13 10:30:39;;;;;;;1.58;0.80;;;;;;;;;;4888564;29;20055;-71
2022/05/13 10:33:31;;;;;;;1.08;1.02;;;;;;;;;;4892984;29;20586;-69
2022/05/13 10:36:13;;;;;;;1.27;1.00;;;;;;;;;;4890629;29;20048;-71
2022/05/13 10:38:40;;;;;;;1.15;1.10;;;;;;;;;;4894966;29;20127;-69
2022/05/13 10:41:17;;;;;;;1.50;1.40;;;;;;;;;;4877599;29;20048;-71
2022/05/13 10:43:57;;;;;;;1.00;1.00;;;;;;;;;;4895259;29;20515;-72
2022/05/13 10:46:27;;;;;;;0.80;0.80;;;;;;;;;;4894573;29;20415;-71
2022/05/13 10:48:53;;;;;;;1.10;1.10;;;;;;;;;;4877076;29;20156;-72
2022/05/13 10:51:23;;;;;;;1.02;1.00;;;;;;;;;;4877894;29;20443;-70
2022/05/13 10:54:07;;;;;;;7.00;1.38;;;;;;;;;;4877406;29;20581;-71
2022/05/13 10:56:41;;;;;;;1.25;1.13;;;;;;;;;;4876170;29;20056;-72
2022/05/13 10:59:18;;;;;;;1.10;1.10;;;;;;;;;;4893803;29;20044;-72
2022/05/13 11:01:48;;;;;;;1.00;0.90;;;;;;;;;;4877311;29;20044;-72
2022/05/13 11:04:24;;;;;;;1.10;1.00;;;;;;;;;;4894066;29;20040;-72
2022/05/13 11:07:00;;;;;;;0.90;0.90;;;;;;;;;;4877711;29;20045;-72
2022/05/13 11:09:38;;;;;;;2.85;1.00;;;;;;;;;;4893841;29;20057;-71
2022/05/13 11:12:17;;;;;;;1.23;1.10;;;;;;;;;;4871473;29;20051;-69
2022/05/13 11:14:59;;;;;;;0.90;0.90;;;;;;;;;;4877320;29;20511;-69
2022/05/13 11:17:31;;;;;;;1.13;1.05;;;;;;;;;;4876526;29;20112;-70
2022/05/13 11:20:03;;;;;;;2.45;1.00;;;;;;;;;;4861925;29;20049;-69
2022/05/13 11:22:37;;;;;;;1.13;1.10;;;;;;;;;;4892393;29;20048;-69
2022/05/13 11:28:16;;;;;;;1.00;1.00;;;;;;;;;;4893470;29;20087;-69
2022/05/13 11:30:47;;;;;;;4.10;0.80;;;;;;;;;;4860905;29;20100;-70
2022/05/13 11:33:20;;;;;;;1.33;1.23;;;;;;;;;;4874914;29;20033;-69
2022/05/13 11:35:54;;;;;;;0.73;0.73;;;;;;;;;;4892925;29;20059;-69
2022/05/13 11:38:32;;;;;;;3.28;1.17;;;;;;;;;;4868493;29;20131;-71
2022/05/13 11:41:00;;;;;;;4.82;1.08;;;;;;;;;;4887168;29;20045;-71
2022/05/13 11:43:39;;;;;;;0.90;0.90;;;;;;;;;;4893804;29;20677;-72
2022/05/13 11:46:05;;;;;;;4.05;0.90;;;;;;;;;;4877234;29;20040;-71
2022/05/13 11:48:31;;;;;;;2.88;1.02;;;;;;;;;;4890606;29;20063;-71
2022/05/13 11:51:10;;;;;;;1.00;0.93;;;;;;;;;;4894701;29;20411;-71
2022/05/13 11:53:42;;;;;;;1.10;1.10;;;;;;;;;;4876460;29;20136;-70
2022/05/13 11:56:26;;;;;;;3.67;0.95;;;;;;;;;;4893663;29;20396;-70
2022/05/13 11:58:54;;;;;;;1.15;0.85;;;;;;;;;;4893125;29;20135;-70
2022/05/13 12:01:36;;;;;;;0.95;0.95;;;;;;;;;;4893487;29;20214;-70
2022/05/13 12:04:14;;;;;;;1.88;1.00;;;;;;;;;;4876850;29;20599;-69
2022/05/13 12:06:49;;;;;;;0.90;0.90;;;;;;;;;;4876898;29;20048;-69
2022/05/13 12:09:23;;;;;;;4.05;1.00;;;;;;;;;;4893472;29;20120;-70
2022/05/13 12:12:07;;;;;;;1.48;1.20;;;;;;;;;;4893583;29;20052;-69
2022/05/13 12:14:44;;;;;;;2.80;0.95;;;;;;;;;;4893539;29;20048;-69
2022/05/13 12:17:10;;;;;;;2.10;1.17;;;;;;;;;;4893515;29;20476;-69
2022/05/13 12:19:55;;;;;;;1.88;0.90;;;;;;;;;;4893537;29;20045;-69
2022/05/13 12:22:34;;;;;;;1.20;0.80;;;;;;;;;;4893426;29;20041;-69
2022/05/13 12:25:02;;;;;;;0.90;0.88;;;;;;;;;;4877441;29;20140;-70
2022/05/13 12:27:30;;;;;;;2.25;0.90;;;;;;;;;;4893005;29;20051;-71
2022/05/13 12:29:58;;;;;;;1.23;0.90;;;;;;;;;;4893773;29;20690;-70
2022/05/13 12:32:34;;;;;;;1.73;1.20;;;;;;;;;;4876635;29;20232;-70
2022/05/13 12:37:48;;;;;;;3.63;0.82;;;;;;;;;;4893578;29;20048;-69
2022/05/13 12:40:20;;;;;;;1.70;1.02;;;;;;;;;;4876306;29;20045;-70
2022/05/13 12:42:51;;;;;;;4.75;1.10;;;;;;;;;;4893468;29;20060;-70
2022/05/13 12:45:18;;;;;;;1.33;1.23;;;;;;;;;;4896853;29;20048;-70
2022/05/13 12:48:02;;;;;;;1.95;0.98;;;;;;;;;;4897262;29;20048;-70
2022/05/13 12:50:44;;;;;;;3.22;1.27;;;;;;;;;;4896562;29;20048;-70
2022/05/13 12:53:27;;;;;;;1.35;1.05;;;;;;;;;;4897344;29;20514;-70
2022/05/13 12:55:57;;;;;;;7.80;1.40;;;;;;;;;;4896815;29;20053;-71
2022/05/13 12:58:22;;;;;;;1.60;1.15;;;;;;;;;;4880042;29;20044;-70
2022/05/13 13:00:49;;;;;;;3.45;1.30;;;;;;;;;;4880136;29;20048;-70
2022/05/13 13:03:15;;;;;;;0.90;0.90;;;;;;;;;;4896238;29;20049;-69
2022/05/13 13:05:42;;;;;;;1.38;1.15;;;;;;;;;;4896132;29;20048;-70
2022/05/13 13:08:13;;;;;;;1.30;1.20;;;;;;;;;;4879836;29;20482;-70
2022/05/13 13:11:05;;;;;;;1.45;1.10;;;;;;;;;;4896314;29;20056;-70
2022/05/13 13:13:33;;;;;;;2.25;1.60;;;;;;;;;;4866597;29;20529;-69
2022/05/13 13:16:00;;;;;;;1.50;1.40;;;;;;;;;;4879642;29;20052;-70
2022/05/13 13:18:32;;;;;;;2.10;1.58;;;;;;;;;;4895264;29;20534;-70
2022/05/13 13:20:59;;;;;;;1.48;1.38;;;;;;;;;;4896037;29;20482;-69
2022/05/13 13:23:29;;;;;;;1.90;1.33;;;;;;;;;;4895796;29;20080;-69
2022/05/13 13:25:57;;;;;;;2.28;1.33;;;;;;;;;;4878870;29;20147;-70
2022/05/13 13:28:30;;;;;;;3.65;1.48;;;;;;;;;;4895777;29;20108;-69
2022/05/13 13:30:57;;;;;;;5.88;1.83;;;;;;;;;;4878823;29;20108;-69
2022/05/13 13:33:24;;;;;;;3.08;2.05;;;;;;;;;;4896107;29;20124;-69
2022/05/13 13:35:50;;;;;;;1.10;1.10;;;;;;;;;;4896053;29;20553;-69
2022/05/13 13:38:17;;;;;;;1.92;1.00;;;;;;;;;;4896056;29;20079;-68
2022/05/13 13:40:44;;;;;;;1.10;1.00;;;;;;;;;;4878057;29;20143;-69
2022/05/13 13:43:18;;;;;;;2.00;1.77;;;;;;;;;;4895601;29;20051;-69
2022/05/13 13:45:45;;;;;;;2.50;1.73;;;;;;;;;;4895691;29;20040;-69
2022/05/13 13:48:11;;;;;;;4.05;3.05;;;;;;;;;;4895837;29;20045;-69
2022/05/13 13:50:40;;;;;;;2.40;2.17;;;;;;;;;;4887514;29;20047;-68
2022/05/13 13:53:06;;;;;;;1.48;1.23;;;;;;;;;;4878587;29;20515;-69
2022/05/13 13:55:34;;;;;;;1.52;1.05;;;;;;;;;;4892854;29;20041;-69
2022/05/13 13:58:16;;;;;;;1.63;1.08;;;;;;;;;;4895024;29;20043;-70
2022/05/13 14:00:43;;;;;;;2.75;1.33;;;;;;;;;;4879153;29;20072;-70
2022/05/13 14:03:14;;;;;;;1.50;1.50;;;;;;;;;;4878951;29;20045;-69
2022/05/13 14:05:41;;;;;;;2.75;1.10;;;;;;;;;;4894598;29;20052;-69
2022/05/13 14:08:07;;;;;;;1.20;1.20;;;;;;;;;;4862946;29;20051;-69
2022/05/13 14:10:35;;;;;;;3.67;1.02;;;;;;;;;;4894510;29;20574;-70
2022/05/13 14:13:03;;;;;;;2.38;1.17;;;;;;;;;;4878544;29;20096;-71
2022/05/13 14:15:32;;;;;;;1.48;1.15;;;;;;;;;;4877345;29;20063;-70
2022/05/13 14:17:58;;;;;;;4.68;1.15;;;;;;;;;;4894272;29;20052;-70
2022/05/13 14:20:35;;;;;;;5.25;1.17;;;;;;;;;;4893471;29;20068;-69
2022/05/13 14:23:07;;;;;;;3.47;1.45;;;;;;;;;;4894485;29;20048;-69
2022/05/13 14:25:47;;;;;;;3.80;0.98;;;;;;;;;;4894237;29;20084;-70
2022/05/13 14:28:13;;;;;;;1.35;1.25;;;;;;;;;;4876235;29;20053;-69
2022/05/13 14:30:39;;;;;;;1.80;1.20;;;;;;;;;;4875906;29;20048;-70
2022/05/13 14:33:06;;;;;;;1.13;1.02;;;;;;;;;;4859194;29;20052;-70
2022/05/13 14:35:32;;;;;;;0.73;0.70;;;;;;;;;;4879809;29;20496;-69
2022/05/13 14:38:08;;;;;;;3.15;0.95;;;;;;;;;;4895089;29;20051;-70
2022/05/13 14:40:41;;;;;;;1.33;0.88;;;;;;;;;;4894455;29;20044;-69
2022/05/13 14:43:10;;;;;;;2.90;1.15;;;;;;;;;;4894565;29;20088;-69
2022/05/13 14:45:40;;;;;;;2.10;1.02;;;;;;;;;;4894117;29;20131;-70
2022/05/13 14:48:27;;;;;;;1.17;1.08;;;;;;;;;;4893573;29;20045;-68
2022/05/13 14:50:57;;;;;;;3.30;1.13;;;;;;;;;;4894881;29;20079;-72
2022/05/13 14:53:23;;;;;;;0.75;0.75;;;;;;;;;;4894846;29;20036;-71
2022/05/13 14:55:53;;;;;;;5.90;1.02;;;;;;;;;;4894527;29;20116;-70
2022/05/13 14:58:21;;;;;;;0.88;0.80;;;;;;;;;;4864237;29;20045;-70
2022/05/13 15:00:47;;;;;;;2.17;1.08;;;;;;;;;;4874584;29;20045;-69
2022/05/13 15:03:13;;;;;;;3.13;0.90;;;;;;;;;;4883042;29;20100;-69
2022/05/13 15:05:42;;;;;;;2.53;0.85;;;;;;;;;;4894214;29;20123;-70
2022/05/13 15:08:27;;;;;;;0.77;0.77;;;;;;;;;;4893931;29;20056;-69
2022/05/13 15:10:54;;;;;;;1.67;0.80;;;;;;;;;;4894278;29;20056;-69
2022/05/13 15:13:22;;;;;;;1.15;0.77;;;;;;;;;;4893593;29;20045;-70
2022/05/13 15:15:48;;;;;;;7.00;1.05;;;;;;;;;;4893762;29;20040;-69
2022/05/13 15:18:16;;;;;;;0.70;0.70;;;;;;;;;;4894089;29;20041;-69
2022/05/13 15:20:42;;;;;;;1.77;1.00;;;;;;;;;;4893683;29;20104;-68
2022/05/13 15:23:08;;;;;;;2.22;0.90;;;;;;;;;;4876380;29;20052;-69
2022/05/13 15:25:36;;;;;;;2.60;1.30;;;;;;;;;;4875594;29;20139;-69
2022/05/13 15:28:03;;;;;;;6.15;1.35;;;;;;;;;;4876342;29;20048;-70